createdAt,value
2022-12-04T00:00:39.167Z,102090.44
2022-12-04T00:03:07.601Z,102097.34
2022-12-04T00:05:35.918Z,102097.28
2022-12-04T00:08:03.959Z,102098.94
2022-12-04T00:10:31.924Z,102090.66
2022-12-04T00:13:01.257Z,102090.63
2022-12-04T00:15:29.181Z,102094.34
2022-12-04T00:17:57.311Z,102087.63
2022-12-04T00:20:25.219Z,102087.50
2022-12-04T00:22:53.145Z,102093.16
2022-12-04T00:25:21.064Z,102092.31
2022-12-04T00:27:48.983Z,102088.63
2022-12-04T00:30:18.555Z,102093.75
2022-12-04T00:32:46.458Z,102091.56
2022-12-04T00:35:14.561Z,102098.06
2022-12-04T00:37:42.631Z,102095.03
2022-12-04T00:40:11.308Z,102097.22
2022-12-04T00:42:39.243Z,102092.69
2022-12-04T00:45:08.342Z,102097.16
2022-12-04T00:47:37.617Z,102098.63
2022-12-04T00:50:06.633Z,102096.81
2022-12-04T00:52:34.540Z,102097.81
2022-12-04T00:55:02.510Z,102093.06
2022-12-04T00:57:30.395Z,102094.19
2022-12-04T00:59:58.324Z,102091.03
2022-12-04T01:02:26.257Z,102090.06
2022-12-04T01:04:55.600Z,102088.78
2022-12-04T01:07:23.525Z,102082.84
2022-12-04T01:09:51.750Z,102086.94
2022-12-04T01:12:21.100Z,102088.91
2022-12-04T01:14:49.190Z,102086.94
2022-12-04T01:17:17.117Z,102092.03
2022-12-04T01:19:45.186Z,102093.16
2022-12-04T01:22:14.531Z,102086.59
2022-12-04T01:24:42.572Z,102084.09
2022-12-04T01:27:10.601Z,102089.91
2022-12-04T01:29:38.519Z,102084.03
2022-12-04T01:32:06.904Z,102078.69
2022-12-04T01:34:36.729Z,102080.75
2022-12-04T01:37:04.645Z,102076.88
2022-12-04T01:39:33.949Z,102072.19
2022-12-04T01:42:01.964Z,102075.69
2022-12-04T01:44:32.153Z,102071.84
2022-12-04T01:47:01.118Z,102070.50
2022-12-04T01:49:32.603Z,102065.63
2022-12-04T01:52:03.728Z,102069.38
2022-12-04T01:54:35.580Z,102068.44
2022-12-04T01:57:07.372Z,102067.34
2022-12-04T01:59:40.292Z,102069.50
2022-12-04T02:02:10.938Z,102062.53
2022-12-04T02:04:40.268Z,102071.72
2022-12-04T02:07:08.240Z,102073.53
2022-12-04T02:09:39.442Z,102069.88
2022-12-04T02:12:13.218Z,102071.13
2022-12-04T02:14:46.215Z,102070.78
2022-12-04T02:17:19.781Z,102068.53
2022-12-04T02:20:00.757Z,102065.53
2022-12-04T02:22:47.103Z,102054.06
2022-12-04T02:25:22.462Z,102063.66
2022-12-04T02:28:05.156Z,102062.97
2022-12-04T02:30:34.966Z,102063.94
2022-12-04T02:33:06.632Z,102054.03
2022-12-04T02:35:37.829Z,102057.44
2022-12-04T02:38:10.664Z,102054.81
2022-12-04T02:40:43.153Z,102055.19
2022-12-04T02:43:16.252Z,102060.09
2022-12-04T02:45:47.122Z,102054.97
2022-12-04T02:48:18.317Z,102063.19
2022-12-04T02:50:47.344Z,102057.06
2022-12-04T02:53:19.492Z,102058.03
2022-12-04T02:55:50.717Z,102051.88
2022-12-04T02:58:24.289Z,102048.25
2022-12-04T03:00:53.293Z,102056.69
2022-12-04T03:03:24.262Z,102058.03
2022-12-04T03:05:57.579Z,102069.50
2022-12-04T03:08:29.064Z,102064.84
2022-12-04T03:10:58.490Z,102074.59
2022-12-04T03:13:32.221Z,102061.50
2022-12-04T03:16:03.332Z,102064.38
2022-12-04T03:18:34.244Z,102058.72
2022-12-04T03:21:04.852Z,102068.53
2022-12-04T03:23:35.382Z,102063.94
2022-12-04T03:26:09.187Z,102069.50
2022-12-04T03:28:43.872Z,102066.63
2022-12-04T03:31:12.480Z,102062.03
2022-12-04T03:33:43.581Z,102059.13
2022-12-04T03:36:16.424Z,102066.59
2022-12-04T03:38:48.714Z,102070.97
2022-12-04T03:41:22.643Z,102066.94
2022-12-04T03:43:54.592Z,102061.44
2022-12-04T03:46:28.397Z,102062.31
2022-12-04T03:49:01.904Z,102062.84
2022-12-04T03:51:34.513Z,102061.16
2022-12-04T03:54:06.855Z,102058.09
2022-12-04T03:56:37.936Z,102050.88
2022-12-04T03:59:11.499Z,102057.78
2022-12-04T04:01:44.049Z,102054.94
2022-12-04T04:04:16.808Z,102054.97
2022-12-04T04:06:48.425Z,102045.09
2022-12-04T04:09:19.962Z,102049.25
2022-12-04T04:11:50.632Z,102061.59
2022-12-04T04:14:41.206Z,102052.09
2022-12-04T04:17:29.678Z,102054.13
2022-12-04T04:20:20.688Z,102057.44
2022-12-04T04:23:06.935Z,102053.84
2022-12-04T04:25:38.156Z,102046.84
2022-12-04T04:28:06.040Z,102054.13
2022-12-04T04:30:35.975Z,102054.00
2022-12-04T04:33:07.730Z,102047.69
2022-12-04T04:35:42.153Z,102053.09
2022-12-04T04:38:15.107Z,102059.16
2022-12-04T04:40:49.232Z,102051.78
2022-12-04T04:43:21.097Z,102053.59
2022-12-04T04:45:54.155Z,102059.81
2022-12-04T04:48:25.516Z,102059.78
2022-12-04T04:50:54.165Z,102065.22
2022-12-04T04:53:26.899Z,102052.03
2022-12-04T04:55:55.030Z,102054.16
2022-12-04T04:58:23.120Z,102061.34
2022-12-04T05:00:58.207Z,102053.41
2022-12-04T05:03:26.226Z,102058.38
2022-12-04T05:05:54.362Z,102058.81
2022-12-04T05:08:22.312Z,102060.00
2022-12-04T05:10:50.519Z,102051.50
2022-12-04T05:13:19.449Z,102060.00
2022-12-04T05:15:59.078Z,102061.34
2022-12-04T05:18:27.007Z,102074.84
2022-12-04T05:20:54.036Z,102070.09
2022-12-04T05:23:22.025Z,102072.16
2022-12-04T05:25:49.971Z,102064.06
2022-12-04T05:28:18.398Z,102065.56
2022-12-04T05:30:46.354Z,102072.84
2022-12-04T05:33:15.631Z,102062.78
2022-12-04T05:35:43.535Z,102057.84
2022-12-04T05:38:11.468Z,102063.09
2022-12-04T05:40:39.500Z,102055.59
2022-12-04T05:43:07.373Z,102061.94
2022-12-04T05:45:35.480Z,102061.94
2022-12-04T05:48:03.371Z,102062.00
2022-12-04T05:50:32.679Z,102061.75
2022-12-04T05:53:00.590Z,102061.69
2022-12-04T05:55:28.592Z,102070.91
2022-12-04T05:57:56.484Z,102065.66
2022-12-04T06:00:24.619Z,102069.94
2022-12-04T06:02:52.594Z,102069.84
2022-12-04T06:05:20.565Z,102062.56
2022-12-04T06:07:50.114Z,102058.06
2022-12-04T06:10:18.141Z,102054.78
2022-12-04T06:12:46.101Z,102060.94
2022-12-04T06:15:14.025Z,102061.25
2022-12-04T06:17:41.947Z,102068.28
2022-12-04T06:20:11.913Z,102061.41
2022-12-04T06:22:40.135Z,102066.38
2022-12-04T06:25:10.589Z,102065.31
2022-12-04T06:27:38.485Z,102064.00
2022-12-04T06:30:07.518Z,102069.28
2022-12-04T06:32:35.547Z,102073.56
2022-12-04T06:35:04.252Z,102074.75
2022-12-04T06:37:32.217Z,102075.19
2022-12-04T06:40:00.213Z,102077.41
2022-12-04T06:42:29.585Z,102079.75
2022-12-04T06:44:57.755Z,102078.75
2022-12-04T06:47:25.851Z,102075.25
2022-12-04T06:49:54.221Z,102069.91
2022-12-04T06:52:22.474Z,102078.09
2022-12-04T06:54:50.612Z,102076.38
2022-12-04T06:57:18.536Z,102073.78
2022-12-04T06:59:47.801Z,102081.78
2022-12-04T07:02:15.794Z,102091.53
2022-12-04T07:04:44.028Z,102079.19
2022-12-04T07:07:13.271Z,102092.94
2022-12-04T07:09:41.212Z,102087.94
2022-12-04T07:12:09.196Z,102092.25
2022-12-04T07:14:37.125Z,102083.50
2022-12-04T07:17:06.680Z,102081.66
2022-12-04T07:19:34.664Z,102088.63
2022-12-04T07:22:02.545Z,102087.94
2022-12-04T07:24:30.466Z,102089.75
2022-12-04T07:26:58.404Z,102092.03
2022-12-04T07:29:26.293Z,102088.28
2022-12-04T07:31:54.313Z,102094.72
2022-12-04T07:34:23.623Z,102091.88
2022-12-04T07:36:51.571Z,102085.31
2022-12-04T07:39:19.496Z,102093.22
2022-12-04T07:41:47.403Z,102095.06
2022-12-04T07:44:15.377Z,102091.44
2022-12-04T07:46:43.728Z,102088.63
2022-12-04T07:49:12.811Z,102095.81
2022-12-04T07:51:42.169Z,102090.22
2022-12-04T07:54:10.660Z,102100.91
2022-12-04T07:56:38.649Z,102095.91
2022-12-04T07:59:06.583Z,102097.38
2022-12-04T08:01:34.969Z,102091.34
2022-12-04T08:04:04.477Z,102103.59
2022-12-04T08:06:35.486Z,102100.16
2022-12-04T08:09:09.726Z,102090.53
2022-12-04T08:11:38.688Z,102089.03
2022-12-04T08:14:08.855Z,102086.75
2022-12-04T08:16:37.168Z,102077.63
2022-12-04T08:19:05.676Z,102081.03
2022-12-04T08:21:33.869Z,102090.75
2022-12-04T08:24:02.270Z,102081.34
2022-12-04T08:26:33.622Z,102090.03
2022-12-04T08:29:02.789Z,102089.34
2022-12-04T08:31:33.031Z,102087.50
2022-12-04T08:34:02.803Z,102099.81
2022-12-04T08:36:31.239Z,102097.84
2022-12-04T08:38:59.390Z,102100.44
2022-12-04T08:41:27.948Z,102088.19
2022-12-04T08:43:58.014Z,102094.16
2022-12-04T08:46:27.194Z,102095.91
2022-12-04T08:48:55.431Z,102093.41
2022-12-04T08:51:25.237Z,102094.13
2022-12-04T08:53:55.195Z,102094.06
2022-12-04T08:56:23.432Z,102089.38
2022-12-04T08:58:51.395Z,102089.59
2022-12-04T09:01:20.755Z,102086.75
2022-12-04T09:03:48.769Z,102077.81
2022-12-04T09:06:18.092Z,102082.16
2022-12-04T09:08:46.360Z,102084.84
2022-12-04T09:11:16.105Z,102087.44
2022-12-04T09:13:44.601Z,102090.09
2022-12-04T09:16:14.486Z,102081.22
2022-12-04T09:18:44.138Z,102089.88
2022-12-04T09:21:14.677Z,102092.03
2022-12-04T09:23:42.888Z,102095.19
2022-12-04T09:26:19.720Z,102090.00
2022-12-04T09:28:48.150Z,102087.41
2022-12-04T09:31:16.589Z,102085.63
2022-12-04T09:33:45.993Z,102079.97
2022-12-04T09:36:16.359Z,102085.22
2022-12-04T09:38:45.041Z,102083.50
2022-12-04T09:41:25.281Z,102080.13
2022-12-04T09:43:57.921Z,102072.66
2022-12-04T09:46:30.034Z,102078.00
2022-12-04T09:49:01.161Z,102073.41
2022-12-04T09:51:30.189Z,102067.00
2022-12-04T09:54:01.021Z,102065.44
2022-12-04T09:56:31.423Z,102059.84
2022-12-04T09:59:04.301Z,102061.59
2022-12-04T10:01:37.676Z,102055.41
2022-12-04T10:04:07.193Z,102059.88
2022-12-04T10:06:41.802Z,102059.53
2022-12-04T10:09:15.680Z,102059.66
2022-12-04T10:11:51.090Z,102055.03
2022-12-04T10:14:34.874Z,102046.03
2022-12-04T10:17:27.823Z,102052.81
2022-12-04T10:20:05.266Z,102053.69
2022-12-04T10:22:38.438Z,102052.72
2022-12-04T10:25:10.181Z,102055.50
2022-12-04T10:27:42.559Z,102046.53
2022-12-04T10:30:18.069Z,102052.50
2022-12-04T10:32:46.708Z,102052.72
2022-12-04T10:35:22.260Z,102050.03
2022-12-04T10:37:53.982Z,102048.13
2022-12-04T10:40:24.650Z,102047.00
2022-12-04T10:42:56.801Z,102047.94
2022-12-04T10:45:25.153Z,102047.94
2022-12-04T10:47:53.815Z,102050.44
2022-12-04T10:50:24.658Z,102046.84
2022-12-04T10:52:52.777Z,102048.75
2022-12-04T10:55:30.134Z,102047.66
2022-12-04T10:57:58.016Z,102043.25
2022-12-04T11:00:29.796Z,102044.06
2022-12-04T11:03:01.041Z,102041.16
2022-12-04T11:05:33.303Z,102045.66
2022-12-04T11:08:02.541Z,102038.47
2022-12-04T11:10:35.795Z,102048.34
2022-12-04T11:13:05.471Z,102043.84
2022-12-04T11:15:36.663Z,102040.31
2022-12-04T11:18:14.294Z,102043.69
2022-12-04T11:20:47.008Z,102038.44
2022-12-04T11:23:16.577Z,102033.03
2022-12-04T11:25:48.099Z,102026.94
2022-12-04T11:28:39.787Z,102025.88
2022-12-04T11:31:08.238Z,102029.63
2022-12-04T11:33:39.780Z,102016.44
2022-12-04T11:36:21.120Z,102016.06
2022-12-04T11:38:49.563Z,102018.06
2022-12-04T11:41:26.933Z,102011.69
2022-12-04T11:43:59.988Z,102015.47
2022-12-04T11:46:30.144Z,102022.28
2022-12-04T11:48:58.214Z,102007.97
2022-12-04T11:51:36.469Z,102009.03
2022-12-04T11:54:09.296Z,102005.41
2022-12-04T11:56:41.578Z,102008.06
2022-12-04T11:59:30.268Z,102005.38
2022-12-04T12:02:03.035Z,102001.03
2022-12-04T12:04:44.174Z,101997.28
2022-12-04T12:07:21.658Z,101995.66
2022-12-04T12:09:57.297Z,101989.94
2022-12-04T12:12:34.265Z,101986.19
2022-12-04T12:15:09.518Z,101981.81
2022-12-04T12:17:43.109Z,101977.56
2022-12-04T12:20:16.089Z,101982.88
2022-12-04T12:23:00.271Z,101989.09
2022-12-04T12:25:30.943Z,101987.06
2022-12-04T12:28:06.885Z,101995.09
2022-12-04T12:30:43.996Z,101993.34
2022-12-04T12:33:18.738Z,101989.75
2022-12-04T12:35:52.522Z,102001.22
2022-12-04T12:38:25.457Z,101995.88
2022-12-04T12:40:57.616Z,101992.47
2022-12-04T12:43:30.397Z,101991.53
2022-12-04T12:46:04.385Z,101987.97
2022-12-04T12:48:37.329Z,101985.25
2022-12-04T12:51:29.187Z,101988.81
2022-12-04T12:54:05.043Z,101979.84
2022-12-04T12:56:38.428Z,101981.66
2022-12-04T12:59:10.257Z,101973.66
2022-12-04T13:01:45.033Z,101974.56
2022-12-04T13:04:15.921Z,101970.09
2022-12-04T13:06:45.763Z,101961.88
2022-12-04T13:09:19.956Z,101961.13
2022-12-04T13:11:51.405Z,101964.66
2022-12-04T13:14:19.366Z,101956.41
2022-12-04T13:16:49.233Z,101952.00
2022-12-04T13:19:19.973Z,101946.44
2022-12-04T13:21:51.038Z,101948.31
2022-12-04T13:24:36.469Z,101942.97
2022-12-04T13:27:08.833Z,101933.16
2022-12-04T13:29:45.986Z,101924.25
2022-12-04T13:32:46.201Z,101927.03
2022-12-04T13:35:21.824Z,101924.31
2022-12-04T13:38:01.423Z,101925.13
2022-12-04T13:40:33.896Z,101910.84
2022-12-04T13:43:28.455Z,101916.16
2022-12-04T13:45:58.011Z,101921.44
2022-12-04T13:48:39.634Z,101925.81
2022-12-04T13:51:40.121Z,101928.44
2022-12-04T13:54:41.313Z,101932.84
2022-12-04T13:57:21.167Z,101940.88
2022-12-04T13:59:50.234Z,101942.53
2022-12-04T14:02:37.849Z,101938.09
2022-12-04T14:05:08.445Z,101939.88
2022-12-04T14:07:38.109Z,101938.03
2022-12-04T14:10:08.874Z,101940.88
2022-12-04T14:12:41.063Z,101944.25
2022-12-04T14:15:12.571Z,101944.38
2022-12-04T14:17:40.924Z,101938.97
2022-12-04T14:20:22.176Z,101939.97
2022-12-04T14:22:50.172Z,101937.28
2022-12-04T14:25:35.744Z,101935.53
2022-12-04T14:28:24.949Z,101929.19
2022-12-04T14:31:07.782Z,101933.53
2022-12-04T14:33:39.725Z,101933.63
2022-12-04T14:36:11.161Z,101940.69
2022-12-04T14:38:39.788Z,101941.47
2022-12-04T14:41:08.088Z,101938.91
2022-12-04T14:43:40.892Z,101935.13
2022-12-04T14:46:13.935Z,101938.78
2022-12-04T14:48:48.859Z,101938.78
2022-12-04T14:51:25.591Z,101938.75
2022-12-04T14:54:01.730Z,101936.06
2022-12-04T14:56:52.124Z,101920.97
2022-12-04T14:59:23.879Z,101924.41
2022-12-04T15:01:52.748Z,101925.19
2022-12-04T15:04:24.986Z,101922.69
2022-12-04T15:06:59.749Z,101921.53
2022-12-04T15:09:46.529Z,101917.16
2022-12-04T15:12:37.568Z,101924.38
2022-12-04T15:15:16.248Z,101926.22
2022-12-04T15:17:44.271Z,101919.81
2022-12-04T15:20:16.298Z,101915.28
2022-12-04T15:22:44.310Z,101918.94
2022-12-04T15:25:17.671Z,101917.94
2022-12-04T15:27:46.946Z,101912.47
2022-12-04T15:30:19.790Z,101912.53
2022-12-04T15:32:50.513Z,101908.00
2022-12-04T15:35:22.291Z,101902.59
2022-12-04T15:37:50.324Z,101912.41
2022-12-04T15:40:23.047Z,101907.91
2022-12-04T15:42:51.481Z,101909.63
2022-12-04T15:45:41.502Z,101908.69
2022-12-04T15:48:10.487Z,101910.50
2022-12-04T15:50:38.512Z,101906.06
2022-12-04T15:53:09.731Z,101903.22
2022-12-04T15:55:41.210Z,101908.69
2022-12-04T15:58:17.831Z,101910.56
2022-12-04T16:00:47.220Z,101908.69
2022-12-04T16:03:24.668Z,101908.63
2022-12-04T16:06:04.020Z,101917.59
2022-12-04T16:08:33.493Z,101914.06
2022-12-04T16:11:02.865Z,101920.22
2022-12-04T16:13:33.396Z,101916.53
2022-12-04T16:16:06.427Z,101917.59
2022-12-04T16:18:34.476Z,101912.25
2022-12-04T16:21:02.560Z,101912.06
2022-12-04T16:23:30.476Z,101902.09
2022-12-04T16:25:58.614Z,101906.59
2022-12-04T16:28:26.562Z,101908.38
2022-12-04T16:30:54.653Z,101911.09
2022-12-04T16:33:24.243Z,101912.88
2022-12-04T16:35:52.146Z,101905.81
2022-12-04T16:38:20.073Z,101904.72
2022-12-04T16:40:49.057Z,101902.91
2022-12-04T16:43:18.184Z,101896.56
2022-12-04T16:45:48.331Z,101910.84
2022-12-04T16:48:16.472Z,101903.72
2022-12-04T16:50:46.265Z,101905.41
2022-12-04T16:53:16.912Z,101907.16
2022-12-04T16:55:46.821Z,101899.16
2022-12-04T16:58:15.238Z,101902.72
2022-12-04T17:00:44.524Z,101904.47
2022-12-04T17:03:18.921Z,101901.72
2022-12-04T17:05:48.225Z,101905.03
2022-12-04T17:08:16.242Z,101909.75
2022-12-04T17:10:44.173Z,101919.56
2022-12-04T17:13:12.172Z,101919.56
2022-12-04T17:15:40.249Z,101923.81
2022-12-04T17:18:12.177Z,101933.75
2022-12-04T17:20:42.241Z,101938.16
2022-12-04T17:23:13.098Z,101941.56
2022-12-04T17:25:41.254Z,101942.47
2022-12-04T17:28:09.205Z,101941.59
2022-12-04T17:30:37.132Z,101939.56
2022-12-04T17:33:05.242Z,101941.41
2022-12-04T17:35:33.270Z,101946.03
2022-12-04T17:38:05.918Z,101945.03
2022-12-04T17:40:35.669Z,101944.03
2022-12-04T17:43:03.650Z,101933.22
2022-12-04T17:45:31.753Z,101936.03
2022-12-04T17:48:00.623Z,101939.56
2022-12-04T17:50:28.544Z,101926.91
2022-12-04T17:52:56.518Z,101935.06
2022-12-04T17:55:24.399Z,101932.22
2022-12-04T17:57:53.685Z,101941.84
2022-12-04T18:00:21.718Z,101938.28
2022-12-04T18:02:53.186Z,101936.50
2022-12-04T18:05:21.611Z,101938.25
2022-12-04T18:07:49.591Z,101944.66
2022-12-04T18:10:17.692Z,101940.84
2022-12-04T18:12:45.642Z,101949.00
2022-12-04T18:15:14.927Z,101942.81
2022-12-04T18:17:42.888Z,101947.28
2022-12-04T18:20:11.466Z,101957.13
2022-12-04T18:22:39.564Z,101955.06
2022-12-04T18:25:09.069Z,101949.00
2022-12-04T18:27:41.641Z,101958.00
2022-12-04T18:30:10.666Z,101961.41
2022-12-04T18:32:40.085Z,101959.72
2022-12-04T18:35:08.745Z,101959.63
2022-12-04T18:37:36.642Z,101963.16
2022-12-04T18:40:07.093Z,101963.16
2022-12-04T18:42:35.418Z,101953.34
2022-12-04T18:45:03.380Z,101955.00
2022-12-04T18:47:31.326Z,101949.69
2022-12-04T18:50:00.823Z,101946.97
2022-12-04T18:52:28.809Z,101940.84
2022-12-04T18:54:56.814Z,101949.69
2022-12-04T18:57:24.706Z,101949.78
2022-12-04T18:59:52.686Z,101956.00
2022-12-04T19:02:20.627Z,101954.13
2022-12-04T19:04:48.681Z,101950.69
2022-12-04T19:07:18.756Z,101959.63
2022-12-04T19:10:10.316Z,101957.00
2022-12-04T19:12:34.760Z,101963.09
2022-12-04T19:15:02.725Z,101976.69
2022-12-04T19:17:30.632Z,101966.78
2022-12-04T19:19:59.014Z,101967.72
2022-12-04T19:22:30.316Z,101982.91
2022-12-04T19:24:58.461Z,101978.47
2022-12-04T19:27:27.673Z,101981.25
2022-12-04T19:29:55.915Z,101982.00
2022-12-04T19:32:24.043Z,101980.06
2022-12-04T19:34:52.665Z,101976.69
2022-12-04T19:37:20.560Z,101977.63
2022-12-04T19:39:49.866Z,101965.72
2022-12-04T19:42:17.804Z,101964.16
2022-12-04T19:44:48.891Z,101963.25
2022-12-04T19:47:17.640Z,101969.41
2022-12-04T19:49:46.550Z,101957.72
2022-12-04T19:52:14.600Z,101960.25
2022-12-04T19:54:42.565Z,101958.56
2022-12-04T19:57:12.882Z,101959.28
2022-12-04T19:59:45.924Z,101954.94
2022-12-04T20:02:14.570Z,101956.69
2022-12-04T20:04:43.268Z,101956.63
2022-12-04T20:07:11.228Z,101957.56
2022-12-04T20:09:39.269Z,101954.78
2022-12-04T20:12:07.744Z,101951.13
2022-12-04T20:14:37.047Z,101944.91
2022-12-04T20:17:05.309Z,101949.41
2022-12-04T20:19:33.506Z,101945.72
2022-12-04T20:22:01.473Z,101945.78
2022-12-04T20:24:29.398Z,101936.75
2022-12-04T20:26:57.617Z,101936.94
2022-12-04T20:29:25.563Z,101943.06
2022-12-04T20:31:54.897Z,101938.69
2022-12-04T20:34:22.811Z,101935.06
2022-12-04T20:36:50.885Z,101936.00
2022-12-04T20:39:20.696Z,101933.34
2022-12-04T20:41:48.918Z,101940.22
2022-12-04T20:44:18.924Z,101933.34
2022-12-04T20:46:47.042Z,101936.00
2022-12-04T20:49:21.978Z,101939.53
2022-12-04T20:51:51.289Z,101936.75
2022-12-04T20:54:20.562Z,101932.34
2022-12-04T20:56:49.237Z,101940.38
2022-12-04T20:59:18.645Z,101928.66
2022-12-04T21:01:47.031Z,101931.38
2022-12-04T21:04:18.059Z,101927.81
2022-12-04T21:06:46.737Z,101927.69
2022-12-04T21:09:17.230Z,101932.19
2022-12-04T21:11:46.897Z,101923.34
2022-12-04T21:14:33.980Z,101917.97
2022-12-04T21:17:02.514Z,101920.53
2022-12-04T21:19:32.169Z,101914.38
2022-12-04T21:22:00.108Z,101926.91
2022-12-04T21:24:28.782Z,101916.19
2022-12-04T21:26:57.053Z,101916.19
2022-12-04T21:29:25.122Z,101915.38
2022-12-04T21:31:53.051Z,101917.19
2022-12-04T21:34:20.999Z,101910.00
2022-12-04T21:36:50.398Z,101914.56
2022-12-04T21:39:18.271Z,101910.94
2022-12-04T21:42:03.388Z,101911.91
2022-12-04T21:44:31.478Z,101908.34
2022-12-04T21:46:59.465Z,101904.78
2022-12-04T21:49:27.510Z,101901.91
2022-12-04T21:51:58.446Z,101906.34
2022-12-04T21:54:26.663Z,101903.69
2022-12-04T21:56:55.141Z,101892.94
2022-12-04T21:59:23.491Z,101893.81
2022-12-04T22:01:51.501Z,101895.50
2022-12-04T22:04:19.523Z,101888.28
2022-12-04T22:06:47.522Z,101888.38
2022-12-04T22:09:16.848Z,101883.88
2022-12-04T22:11:45.264Z,101887.38
2022-12-04T22:14:13.801Z,101881.22
2022-12-04T22:16:43.258Z,101876.72
2022-12-04T22:19:11.705Z,101891.06
2022-12-04T22:21:40.120Z,101891.94
2022-12-04T22:24:10.461Z,101899.09
2022-12-04T22:26:40.533Z,101897.28
2022-12-04T22:29:41.552Z,101901.69
2022-12-04T22:31:56.715Z,101899.00
2022-12-04T22:34:24.583Z,101899.00
2022-12-04T22:36:52.456Z,101891.81
2022-12-04T22:39:20.541Z,101894.59
2022-12-04T22:41:49.849Z,101900.84
2022-12-04T22:44:17.731Z,101897.22
2022-12-04T22:46:45.802Z,101898.09
2022-12-04T22:49:13.796Z,101899.84
2022-12-04T22:51:41.897Z,101892.41
2022-12-04T22:54:14.330Z,101901.69
2022-12-04T22:56:43.352Z,101892.69
2022-12-04T22:59:12.647Z,101884.56
2022-12-04T23:01:40.549Z,101888.03
2022-12-04T23:04:08.568Z,101887.00
2022-12-04T23:06:36.557Z,101883.56
2022-12-04T23:09:06.565Z,101889.00
2022-12-04T23:11:34.696Z,101892.59
2022-12-04T23:14:03.978Z,101893.34
2022-12-04T23:16:36.554Z,101896.09
2022-12-04T23:19:04.845Z,101902.41
2022-12-04T23:21:32.969Z,101896.97
2022-12-04T23:24:00.941Z,101887.84
2022-12-04T23:26:31.274Z,101879.06
2022-12-04T23:28:59.268Z,101889.00
2022-12-04T23:31:27.250Z,101888.00
2022-12-04T23:33:56.883Z,101888.00
2022-12-04T23:36:24.856Z,101887.84
2022-12-04T23:38:52.989Z,101884.34
2022-12-04T23:41:22.756Z,101874.66
2022-12-04T23:43:52.859Z,101874.59
2022-12-04T23:46:22.886Z,101875.53
2022-12-04T23:48:51.136Z,101872.63
2022-12-04T23:51:21.108Z,101880.88
2022-12-04T23:53:49.317Z,101864.88
2022-12-04T23:56:19.748Z,101869.03
2022-12-04T23:58:50.125Z,101866.56
